Shashi, China
Current Conditions -  °F | °C
As of 4:00 AM on Friday 28 Nov 2014 (Local Time) from ZHHH Reporting Station
Scattered Clouds Scattered Clouds  
Wind Chill: 52°   Ceiling: Unl
Heat Index: 52°   Visibility: 5mi
Dew Point: 48°   Wind: 4mph
Humidity: 88%   Direction: 50°NE
Pressure: 30.12"   Gusts: NA
Location:  30.32°N, 112.23°E
Report Text: ZHHH 272000Z 05002MPS 360V080 8000 SCT020 11/09 Q1020 NOSIG
Loading
Personal Weather Stations






























Interactive Weather Map New forecast layout! Learn more

10-Day Weather Forecast

Advertisements
Track Severe Weather on mobile